sensor_id;sensor_type;location;lat;lon;timestamp;P1;durP1;ratioP1;P2;durP2;ratioP2
46447;SDS011;32145;50.390;30.778;2024-01-25T00:00:08;23.27;;;15.23;;
46447;SDS011;32145;50.390;30.778;2024-01-25T00:03:04;24.63;;;15.48;;
46447;SDS011;32145;50.390;30.778;2024-01-25T00:05:58;20.27;;;12.65;;
46447;SDS011;32145;50.390;30.778;2024-01-25T00:08:53;21.92;;;14.00;;
46447;SDS011;32145;50.390;30.778;2024-01-25T00:11:49;20.65;;;13.20;;
46447;SDS011;32145;50.390;30.778;2024-01-25T00:14:45;20.92;;;12.75;;
46447;SDS011;32145;50.390;30.778;2024-01-25T00:17:41;18.58;;;12.45;;
46447;SDS011;32145;50.390;30.778;2024-01-25T00:20:39;20.17;;;12.73;;
46447;SDS011;32145;50.390;30.778;2024-01-25T00:23:35;19.25;;;12.25;;
46447;SDS011;32145;50.390;30.778;2024-01-25T00:26:32;18.35;;;12.18;;
46447;SDS011;32145;50.390;30.778;2024-01-25T00:29:28;20.23;;;12.68;;
46447;SDS011;32145;50.390;30.778;2024-01-25T00:32:26;19.58;;;12.27;;
46447;SDS011;32145;50.390;30.778;2024-01-25T00:35:23;18.73;;;12.57;;
46447;SDS011;32145;50.390;30.778;2024-01-25T00:38:21;19.08;;;12.23;;
46447;SDS011;32145;50.390;30.778;2024-01-25T00:41:18;18.07;;;11.97;;
46447;SDS011;32145;50.390;30.778;2024-01-25T00:44:14;19.40;;;11.85;;
46447;SDS011;32145;50.390;30.778;2024-01-25T00:47:09;19.48;;;11.85;;
46447;SDS011;32145;50.390;30.778;2024-01-25T00:50:04;17.15;;;11.65;;
46447;SDS011;32145;50.390;30.778;2024-01-25T00:52:59;19.15;;;12.48;;
46447;SDS011;32145;50.390;30.778;2024-01-25T00:55:56;21.80;;;12.88;;
46447;SDS011;32145;50.390;30.778;2024-01-25T00:58:51;17.77;;;11.57;;
46447;SDS011;32145;50.390;30.778;2024-01-25T01:01:46;19.63;;;12.40;;
46447;SDS011;32145;50.390;30.778;2024-01-25T01:04:41;18.80;;;11.80;;
46447;SDS011;32145;50.390;30.778;2024-01-25T01:07:36;18.65;;;12.00;;
46447;SDS011;32145;50.390;30.778;2024-01-25T01:10:31;19.75;;;11.90;;
46447;SDS011;32145;50.390;30.778;2024-01-25T01:13:26;18.90;;;12.02;;
46447;SDS011;32145;50.390;30.778;2024-01-25T01:16:20;18.60;;;12.10;;
46447;SDS011;32145;50.390;30.778;2024-01-25T01:19:15;19.38;;;13.23;;
46447;SDS011;32145;50.390;30.778;2024-01-25T01:22:09;19.52;;;12.57;;
46447;SDS011;32145;50.390;30.778;2024-01-25T01:25:03;19.10;;;12.30;;
46447;SDS011;32145;50.390;30.778;2024-01-25T01:28:00;20.90;;;13.05;;
46447;SDS011;32145;50.390;30.778;2024-01-25T01:30:58;19.15;;;12.18;;
46447;SDS011;32145;50.390;30.778;2024-01-25T01:33:52;20.10;;;11.70;;
46447;SDS011;32145;50.390;30.778;2024-01-25T01:36:46;17.35;;;11.73;;
46447;SDS011;32145;50.390;30.778;2024-01-25T01:39:41;19.77;;;11.55;;
46447;SDS011;32145;50.390;30.778;2024-01-25T01:42:35;18.05;;;12.15;;
46447;SDS011;32145;50.390;30.778;2024-01-25T01:45:29;19.83;;;12.82;;
46447;SDS011;32145;50.390;30.778;2024-01-25T01:48:25;17.10;;;12.10;;
46447;SDS011;32145;50.390;30.778;2024-01-25T01:51:21;19.08;;;11.82;;
46447;SDS011;32145;50.390;30.778;2024-01-25T01:54:18;16.25;;;10.85;;
46447;SDS011;32145;50.390;30.778;2024-01-25T01:57:14;18.60;;;12.10;;
46447;SDS011;32145;50.390;30.778;2024-01-25T02:00:11;17.83;;;11.52;;
46447;SDS011;32145;50.390;30.778;2024-01-25T02:03:11;18.80;;;11.52;;
46447;SDS011;32145;50.390;30.778;2024-01-25T02:06:08;17.85;;;11.32;;
46447;SDS011;32145;50.390;30.778;2024-01-25T02:09:06;18.20;;;11.55;;
46447;SDS011;32145;50.390;30.778;2024-01-25T02:12:00;19.30;;;12.55;;
46447;SDS011;32145;50.390;30.778;2024-01-25T02:14:54;19.20;;;11.77;;
46447;SDS011;32145;50.390;30.778;2024-01-25T02:17:49;18.13;;;11.50;;
46447;SDS011;32145;50.390;30.778;2024-01-25T02:20:43;20.80;;;12.43;;
46447;SDS011;32145;50.390;30.778;2024-01-25T02:23:39;15.55;;;10.15;;
46447;SDS011;32145;50.390;30.778;2024-01-25T02:26:33;19.27;;;11.93;;
46447;SDS011;32145;50.390;30.778;2024-01-25T02:29:28;17.45;;;10.75;;
46447;SDS011;32145;50.390;30.778;2024-01-25T02:32:22;19.75;;;11.63;;
46447;SDS011;32145;50.390;30.778;2024-01-25T02:35:17;19.33;;;10.82;;
46447;SDS011;32145;50.390;30.778;2024-01-25T02:38:11;18.00;;;11.23;;
46447;SDS011;32145;50.390;30.778;2024-01-25T02:41:07;19.88;;;12.00;;
46447;SDS011;32145;50.390;30.778;2024-01-25T02:44:03;19.50;;;11.32;;
46447;SDS011;32145;50.390;30.778;2024-01-25T02:46:59;18.73;;;11.15;;
46447;SDS011;32145;50.390;30.778;2024-01-25T02:49:56;18.88;;;10.48;;
46447;SDS011;32145;50.390;30.778;2024-01-25T02:52:52;20.15;;;11.02;;
46447;SDS011;32145;50.390;30.778;2024-01-25T02:55:49;18.98;;;11.23;;
46447;SDS011;32145;50.390;30.778;2024-01-25T02:58:46;18.90;;;11.55;;
46447;SDS011;32145;50.390;30.778;2024-01-25T03:01:43;17.88;;;10.90;;
46447;SDS011;32145;50.390;30.778;2024-01-25T03:04:39;19.80;;;11.50;;
46447;SDS011;32145;50.390;30.778;2024-01-25T03:07:36;17.15;;;10.60;;
46447;SDS011;32145;50.390;30.778;2024-01-25T03:10:32;16.90;;;10.52;;
46447;SDS011;32145;50.390;30.778;2024-01-25T03:13:28;22.40;;;11.20;;
46447;SDS011;32145;50.390;30.778;2024-01-25T03:16:26;19.13;;;10.43;;
46447;SDS011;32145;50.390;30.778;2024-01-25T03:19:23;19.88;;;11.23;;
46447;SDS011;32145;50.390;30.778;2024-01-25T03:22:20;19.40;;;10.70;;
46447;SDS011;32145;50.390;30.778;2024-01-25T03:25:16;17.15;;;10.30;;
46447;SDS011;32145;50.390;30.778;2024-01-25T03:28:12;16.95;;;10.65;;
46447;SDS011;32145;50.390;30.778;2024-01-25T03:31:09;15.32;;;10.07;;
46447;SDS011;32145;50.390;30.778;2024-01-25T03:34:06;17.83;;;10.75;;
46447;SDS011;32145;50.390;30.778;2024-01-25T03:37:03;16.60;;;10.02;;
46447;SDS011;32145;50.390;30.778;2024-01-25T03:39:59;19.50;;;10.63;;
46447;SDS011;32145;50.390;30.778;2024-01-25T03:42:57;17.38;;;10.15;;
46447;SDS011;32145;50.390;30.778;2024-01-25T03:45:54;15.25;;;9.90;;
46447;SDS011;32145;50.390;30.778;2024-01-25T03:49:07;16.92;;;10.32;;
46447;SDS011;32145;50.390;30.778;2024-01-25T03:55:19;16.20;;;9.75;;
46447;SDS011;32145;50.390;30.778;2024-01-25T03:58:13;17.25;;;10.60;;
46447;SDS011;32145;50.390;30.778;2024-01-25T04:01:07;19.02;;;10.32;;
46447;SDS011;32145;50.390;30.778;2024-01-25T04:04:02;19.48;;;10.68;;
46447;SDS011;32145;50.390;30.778;2024-01-25T04:06:57;16.55;;;10.20;;
46447;SDS011;32145;50.390;30.778;2024-01-25T04:09:53;16.92;;;9.80;;
46447;SDS011;32145;50.390;30.778;2024-01-25T04:12:49;18.35;;;9.82;;
46447;SDS011;32145;50.390;30.778;2024-01-25T04:15:46;17.02;;;10.27;;
46447;SDS011;32145;50.390;30.778;2024-01-25T04:18:42;17.23;;;9.75;;
46447;SDS011;32145;50.390;30.778;2024-01-25T04:21:38;16.05;;;9.70;;
46447;SDS011;32145;50.390;30.778;2024-01-25T04:24:34;21.02;;;10.25;;
46447;SDS011;32145;50.390;30.778;2024-01-25T04:27:28;16.75;;;9.20;;
46447;SDS011;32145;50.390;30.778;2024-01-25T04:30:23;16.10;;;9.15;;
46447;SDS011;32145;50.390;30.778;2024-01-25T04:33:17;17.55;;;9.40;;
46447;SDS011;32145;50.390;30.778;2024-01-25T04:36:11;18.83;;;8.75;;
46447;SDS011;32145;50.390;30.778;2024-01-25T04:39:06;19.02;;;9.45;;
46447;SDS011;32145;50.390;30.778;2024-01-25T04:42:01;17.13;;;9.40;;
46447;SDS011;32145;50.390;30.778;2024-01-25T04:44:56;16.35;;;9.23;;
46447;SDS011;32145;50.390;30.778;2024-01-25T04:47:50;19.98;;;8.90;;
46447;SDS011;32145;50.390;30.778;2024-01-25T04:50:44;15.93;;;9.27;;
46447;SDS011;32145;50.390;30.778;2024-01-25T04:53:39;16.45;;;9.30;;
46447;SDS011;32145;50.390;30.778;2024-01-25T04:56:33;17.90;;;9.77;;
46447;SDS011;32145;50.390;30.778;2024-01-25T04:59:29;20.30;;;9.82;;
46447;SDS011;32145;50.390;30.778;2024-01-25T05:02:23;17.20;;;9.27;;
46447;SDS011;32145;50.390;30.778;2024-01-25T05:05:18;16.83;;;8.85;;
46447;SDS011;32145;50.390;30.778;2024-01-25T05:08:14;15.43;;;9.38;;
46447;SDS011;32145;50.390;30.778;2024-01-25T05:11:10;16.98;;;9.25;;
46447;SDS011;32145;50.390;30.778;2024-01-25T05:14:07;18.25;;;8.93;;
46447;SDS011;32145;50.390;30.778;2024-01-25T05:17:04;14.60;;;8.88;;
46447;SDS011;32145;50.390;30.778;2024-01-25T05:20:00;15.45;;;8.48;;
46447;SDS011;32145;50.390;30.778;2024-01-25T05:22:57;14.55;;;8.77;;
46447;SDS011;32145;50.390;30.778;2024-01-25T05:25:53;15.63;;;8.48;;
46447;SDS011;32145;50.390;30.778;2024-01-25T05:28:49;18.25;;;9.15;;
46447;SDS011;32145;50.390;30.778;2024-01-25T05:31:44;15.43;;;7.93;;
46447;SDS011;32145;50.390;30.778;2024-01-25T05:34:39;17.30;;;8.60;;
46447;SDS011;32145;50.390;30.778;2024-01-25T05:37:34;16.65;;;9.68;;
46447;SDS011;32145;50.390;30.778;2024-01-25T05:40:28;18.67;;;8.80;;
46447;SDS011;32145;50.390;30.778;2024-01-25T05:43:23;17.60;;;9.02;;
46447;SDS011;32145;50.390;30.778;2024-01-25T05:46:17;15.80;;;8.48;;
46447;SDS011;32145;50.390;30.778;2024-01-25T05:49:11;14.27;;;8.32;;
46447;SDS011;32145;50.390;30.778;2024-01-25T05:52:07;14.27;;;8.52;;
46447;SDS011;32145;50.390;30.778;2024-01-25T05:55:01;15.13;;;8.48;;
46447;SDS011;32145;50.390;30.778;2024-01-25T05:57:56;17.58;;;8.73;;
46447;SDS011;32145;50.390;30.778;2024-01-25T06:00:50;15.90;;;9.07;;
46447;SDS011;32145;50.390;30.778;2024-01-25T06:03:44;15.43;;;8.30;;
46447;SDS011;32145;50.390;30.778;2024-01-25T06:06:38;15.75;;;8.32;;
46447;SDS011;32145;50.390;30.778;2024-01-25T06:09:37;15.57;;;8.95;;
46447;SDS011;32145;50.390;30.778;2024-01-25T06:12:33;14.38;;;8.23;;
46447;SDS011;32145;50.390;30.778;2024-01-25T06:15:30;15.20;;;8.98;;
46447;SDS011;32145;50.390;30.778;2024-01-25T06:18:26;15.65;;;8.43;;
46447;SDS011;32145;50.390;30.778;2024-01-25T06:21:22;17.05;;;8.15;;
46447;SDS011;32145;50.390;30.778;2024-01-25T06:24:19;16.25;;;9.18;;
46447;SDS011;32145;50.390;30.778;2024-01-25T06:27:16;15.70;;;9.20;;
46447;SDS011;32145;50.390;30.778;2024-01-25T06:30:13;18.88;;;9.05;;
46447;SDS011;32145;50.390;30.778;2024-01-25T06:33:09;17.17;;;9.63;;
46447;SDS011;32145;50.390;30.778;2024-01-25T06:36:06;19.27;;;9.80;;
46447;SDS011;32145;50.390;30.778;2024-01-25T06:39:03;18.60;;;10.10;;
46447;SDS011;32145;50.390;30.778;2024-01-25T06:41:59;18.52;;;10.00;;
46447;SDS011;32145;50.390;30.778;2024-01-25T06:44:57;19.50;;;10.75;;
46447;SDS011;32145;50.390;30.778;2024-01-25T06:47:51;17.80;;;10.27;;
46447;SDS011;32145;50.390;30.778;2024-01-25T06:50:45;20.90;;;9.77;;
46447;SDS011;32145;50.390;30.778;2024-01-25T06:53:40;17.65;;;10.38;;
46447;SDS011;32145;50.390;30.778;2024-01-25T06:56:36;15.23;;;8.55;;
46447;SDS011;32145;50.390;30.778;2024-01-25T06:59:32;21.13;;;10.52;;
46447;SDS011;32145;50.390;30.778;2024-01-25T07:02:30;19.13;;;10.32;;
46447;SDS011;32145;50.390;30.778;2024-01-25T07:05:26;19.63;;;9.70;;
46447;SDS011;32145;50.390;30.778;2024-01-25T07:08:23;38.42;;;20.70;;
46447;SDS011;32145;50.390;30.778;2024-01-25T07:11:17;21.55;;;11.82;;
46447;SDS011;32145;50.390;30.778;2024-01-25T07:14:11;22.52;;;11.73;;
46447;SDS011;32145;50.390;30.778;2024-01-25T07:17:06;27.73;;;15.52;;
46447;SDS011;32145;50.390;30.778;2024-01-25T07:20:01;22.73;;;12.57;;
46447;SDS011;32145;50.390;30.778;2024-01-25T07:22:56;27.58;;;13.00;;
46447;SDS011;32145;50.390;30.778;2024-01-25T07:25:50;25.60;;;11.90;;
46447;SDS011;32145;50.390;30.778;2024-01-25T07:28:47;20.42;;;10.38;;
46447;SDS011;32145;50.390;30.778;2024-01-25T07:31:43;19.08;;;10.32;;
46447;SDS011;32145;50.390;30.778;2024-01-25T07:34:39;20.15;;;10.50;;
46447;SDS011;32145;50.390;30.778;2024-01-25T07:37:37;18.70;;;10.05;;
46447;SDS011;32145;50.390;30.778;2024-01-25T07:40:34;21.20;;;9.93;;
46447;SDS011;32145;50.390;30.778;2024-01-25T07:43:30;18.10;;;9.85;;
46447;SDS011;32145;50.390;30.778;2024-01-25T07:46:27;20.55;;;10.25;;
46447;SDS011;32145;50.390;30.778;2024-01-25T07:49:23;21.40;;;10.38;;
46447;SDS011;32145;50.390;30.778;2024-01-25T07:52:20;22.08;;;9.85;;
46447;SDS011;32145;50.390;30.778;2024-01-25T07:55:17;19.15;;;10.40;;
46447;SDS011;32145;50.390;30.778;2024-01-25T07:58:14;18.70;;;9.70;;
46447;SDS011;32145;50.390;30.778;2024-01-25T08:01:10;18.25;;;9.88;;
46447;SDS011;32145;50.390;30.778;2024-01-25T08:04:06;19.30;;;9.82;;
46447;SDS011;32145;50.390;30.778;2024-01-25T08:07:03;14.55;;;8.45;;
46447;SDS011;32145;50.390;30.778;2024-01-25T08:09:59;16.30;;;8.68;;
46447;SDS011;32145;50.390;30.778;2024-01-25T08:12:57;26.85;;;13.88;;
46447;SDS011;32145;50.390;30.778;2024-01-25T08:15:53;21.13;;;10.95;;
46447;SDS011;32145;50.390;30.778;2024-01-25T08:18:48;20.17;;;9.43;;
46447;SDS011;32145;50.390;30.778;2024-01-25T08:21:42;15.60;;;9.57;;
46447;SDS011;32145;50.390;30.778;2024-01-25T08:24:36;18.38;;;9.65;;
46447;SDS011;32145;50.390;30.778;2024-01-25T08:27:32;16.38;;;10.60;;
46447;SDS011;32145;50.390;30.778;2024-01-25T08:30:28;19.58;;;11.18;;
46447;SDS011;32145;50.390;30.778;2024-01-25T08:33:22;19.92;;;11.48;;
46447;SDS011;32145;50.390;30.778;2024-01-25T08:36:17;20.50;;;12.07;;
46447;SDS011;32145;50.390;30.778;2024-01-25T08:39:11;21.83;;;11.73;;
46447;SDS011;32145;50.390;30.778;2024-01-25T08:42:06;24.23;;;12.38;;
46447;SDS011;32145;50.390;30.778;2024-01-25T08:45:00;25.30;;;11.88;;
46447;SDS011;32145;50.390;30.778;2024-01-25T08:47:56;23.42;;;12.07;;
46447;SDS011;32145;50.390;30.778;2024-01-25T08:50:50;24.35;;;11.60;;
46447;SDS011;32145;50.390;30.778;2024-01-25T08:53:45;22.83;;;11.75;;
46447;SDS011;32145;50.390;30.778;2024-01-25T08:56:39;26.90;;;13.60;;
46447;SDS011;32145;50.390;30.778;2024-01-25T08:59:34;25.38;;;12.30;;
46447;SDS011;32145;50.390;30.778;2024-01-25T09:02:29;20.40;;;11.02;;
46447;SDS011;32145;50.390;30.778;2024-01-25T09:05:24;23.55;;;11.98;;
46447;SDS011;32145;50.390;30.778;2024-01-25T09:08:18;21.52;;;11.55;;
46447;SDS011;32145;50.390;30.778;2024-01-25T09:11:13;32.78;;;16.60;;
46447;SDS011;32145;50.390;30.778;2024-01-25T09:14:07;18.55;;;11.25;;
46447;SDS011;32145;50.390;30.778;2024-01-25T09:17:01;18.77;;;10.18;;
46447;SDS011;32145;50.390;30.778;2024-01-25T09:19:58;27.30;;;11.98;;
46447;SDS011;32145;50.390;30.778;2024-01-25T09:22:55;19.13;;;10.43;;
46447;SDS011;32145;50.390;30.778;2024-01-25T09:25:50;18.90;;;10.73;;
46447;SDS011;32145;50.390;30.778;2024-01-25T09:28:44;19.80;;;10.45;;
46447;SDS011;32145;50.390;30.778;2024-01-25T09:31:38;22.92;;;9.13;;
46447;SDS011;32145;50.390;30.778;2024-01-25T09:34:33;20.73;;;9.60;;
46447;SDS011;32145;50.390;30.778;2024-01-25T09:37:27;19.65;;;8.82;;
46447;SDS011;32145;50.390;30.778;2024-01-25T09:40:22;17.08;;;8.93;;
46447;SDS011;32145;50.390;30.778;2024-01-25T09:43:17;22.17;;;9.52;;
46447;SDS011;32145;50.390;30.778;2024-01-25T09:46:11;12.60;;;6.95;;
46447;SDS011;32145;50.390;30.778;2024-01-25T09:49:07;29.15;;;10.85;;
46447;SDS011;32145;50.390;30.778;2024-01-25T09:52:02;21.38;;;10.65;;
46447;SDS011;32145;50.390;30.778;2024-01-25T09:54:57;18.63;;;9.30;;
46447;SDS011;32145;50.390;30.778;2024-01-25T09:57:54;18.10;;;10.18;;
46447;SDS011;32145;50.390;30.778;2024-01-25T10:00:48;19.33;;;11.80;;
46447;SDS011;32145;50.390;30.778;2024-01-25T10:03:43;19.75;;;10.30;;
46447;SDS011;32145;50.390;30.778;2024-01-25T10:06:37;15.25;;;9.52;;
46447;SDS011;32145;50.390;30.778;2024-01-25T10:09:37;23.25;;;11.38;;
46447;SDS011;32145;50.390;30.778;2024-01-25T10:12:32;18.25;;;10.73;;
46447;SDS011;32145;50.390;30.778;2024-01-25T10:15:28;21.65;;;11.35;;
46447;SDS011;32145;50.390;30.778;2024-01-25T10:18:22;21.58;;;11.07;;
46447;SDS011;32145;50.390;30.778;2024-01-25T10:21:17;16.30;;;10.60;;
46447;SDS011;32145;50.390;30.778;2024-01-25T10:24:12;21.45;;;11.55;;
46447;SDS011;32145;50.390;30.778;2024-01-25T10:27:06;23.00;;;13.75;;
46447;SDS011;32145;50.390;30.778;2024-01-25T10:30:01;21.98;;;13.35;;
46447;SDS011;32145;50.390;30.778;2024-01-25T10:32:57;26.98;;;13.70;;
46447;SDS011;32145;50.390;30.778;2024-01-25T10:35:52;23.15;;;13.57;;
46447;SDS011;32145;50.390;30.778;2024-01-25T10:38:48;20.30;;;13.63;;
46447;SDS011;32145;50.390;30.778;2024-01-25T10:41:43;22.40;;;14.02;;
46447;SDS011;32145;50.390;30.778;2024-01-25T10:44:39;27.40;;;15.80;;
46447;SDS011;32145;50.390;30.778;2024-01-25T10:47:33;26.42;;;15.13;;
46447;SDS011;32145;50.390;30.778;2024-01-25T10:50:32;25.55;;;14.80;;
46447;SDS011;32145;50.390;30.778;2024-01-25T10:53:28;28.20;;;14.65;;
46447;SDS011;32145;50.390;30.778;2024-01-25T10:56:26;25.83;;;14.70;;
46447;SDS011;32145;50.390;30.778;2024-01-25T10:59:23;29.08;;;15.68;;
46447;SDS011;32145;50.390;30.778;2024-01-25T11:02:21;21.33;;;13.20;;
46447;SDS011;32145;50.390;30.778;2024-01-25T11:05:19;24.13;;;12.90;;
46447;SDS011;32145;50.390;30.778;2024-01-25T11:08:18;23.80;;;11.85;;
46447;SDS011;32145;50.390;30.778;2024-01-25T11:11:14;21.50;;;12.65;;
46447;SDS011;32145;50.390;30.778;2024-01-25T11:14:11;20.67;;;11.65;;
46447;SDS011;32145;50.390;30.778;2024-01-25T11:17:14;21.20;;;12.30;;
46447;SDS011;32145;50.390;30.778;2024-01-25T11:20:12;37.35;;;21.25;;
46447;SDS011;32145;50.390;30.778;2024-01-25T11:23:07;36.17;;;18.67;;
46447;SDS011;32145;50.390;30.778;2024-01-25T11:26:03;41.08;;;23.42;;
46447;SDS011;32145;50.390;30.778;2024-01-25T11:29:02;42.95;;;24.70;;
46447;SDS011;32145;50.390;30.778;2024-01-25T11:31:56;23.65;;;13.43;;
46447;SDS011;32145;50.390;30.778;2024-01-25T11:34:57;31.33;;;16.30;;
46447;SDS011;32145;50.390;30.778;2024-01-25T11:37:52;36.22;;;20.63;;
46447;SDS011;32145;50.390;30.778;2024-01-25T11:40:46;29.30;;;14.80;;
46447;SDS011;32145;50.390;30.778;2024-01-25T11:43:42;27.17;;;10.68;;
46447;SDS011;32145;50.390;30.778;2024-01-25T11:46:36;13.57;;;7.68;;
46447;SDS011;32145;50.390;30.778;2024-01-25T11:49:30;18.92;;;9.55;;
46447;SDS011;32145;50.390;30.778;2024-01-25T11:52:25;16.13;;;8.70;;
46447;SDS011;32145;50.390;30.778;2024-01-25T11:55:20;16.58;;;8.52;;
46447;SDS011;32145;50.390;30.778;2024-01-25T11:58:15;22.92;;;12.60;;
46447;SDS011;32145;50.390;30.778;2024-01-25T12:01:10;25.33;;;13.55;;
46447;SDS011;32145;50.390;30.778;2024-01-25T12:04:08;16.92;;;9.77;;
46447;SDS011;32145;50.390;30.778;2024-01-25T12:07:04;20.20;;;11.02;;
46447;SDS011;32145;50.390;30.778;2024-01-25T12:10:01;25.00;;;13.63;;
46447;SDS011;32145;50.390;30.778;2024-01-25T12:12:59;23.70;;;14.45;;
46447;SDS011;32145;50.390;30.778;2024-01-25T12:15:56;23.85;;;14.50;;
46447;SDS011;32145;50.390;30.778;2024-01-25T12:18:54;26.70;;;15.35;;
46447;SDS011;32145;50.390;30.778;2024-01-25T12:21:51;24.05;;;13.75;;
46447;SDS011;32145;50.390;30.778;2024-01-25T12:24:47;21.65;;;11.88;;
46447;SDS011;32145;50.390;30.778;2024-01-25T12:27:41;16.85;;;9.90;;
46447;SDS011;32145;50.390;30.778;2024-01-25T12:30:36;16.85;;;8.30;;
46447;SDS011;32145;50.390;30.778;2024-01-25T12:33:32;15.25;;;8.35;;
46447;SDS011;32145;50.390;30.778;2024-01-25T12:36:30;17.77;;;9.20;;
46447;SDS011;32145;50.390;30.778;2024-01-25T12:39:26;20.08;;;10.73;;
46447;SDS011;32145;50.390;30.778;2024-01-25T12:42:21;23.77;;;13.88;;
46447;SDS011;32145;50.390;30.778;2024-01-25T12:45:16;24.90;;;13.20;;
46447;SDS011;32145;50.390;30.778;2024-01-25T12:48:10;23.08;;;12.00;;
46447;SDS011;32145;50.390;30.778;2024-01-25T12:51:04;21.27;;;11.38;;
46447;SDS011;32145;50.390;30.778;2024-01-25T12:54:00;28.35;;;13.63;;
46447;SDS011;32145;50.390;30.778;2024-01-25T12:56:54;21.08;;;12.02;;
46447;SDS011;32145;50.390;30.778;2024-01-25T12:59:50;22.77;;;11.80;;
46447;SDS011;32145;50.390;30.778;2024-01-25T13:02:46;19.73;;;11.15;;
46447;SDS011;32145;50.390;30.778;2024-01-25T13:05:41;16.52;;;9.52;;
46447;SDS011;32145;50.390;30.778;2024-01-25T13:08:35;23.05;;;11.27;;
46447;SDS011;32145;50.390;30.778;2024-01-25T13:11:33;18.48;;;11.00;;
46447;SDS011;32145;50.390;30.778;2024-01-25T13:14:29;16.35;;;10.50;;
46447;SDS011;32145;50.390;30.778;2024-01-25T13:17:26;18.45;;;11.23;;
46447;SDS011;32145;50.390;30.778;2024-01-25T13:20:22;18.15;;;10.55;;
46447;SDS011;32145;50.390;30.778;2024-01-25T13:23:18;17.85;;;10.35;;
46447;SDS011;32145;50.390;30.778;2024-01-25T13:26:12;19.58;;;9.68;;
46447;SDS011;32145;50.390;30.778;2024-01-25T13:29:08;13.73;;;7.90;;
46447;SDS011;32145;50.390;30.778;2024-01-25T13:32:03;14.68;;;7.90;;
46447;SDS011;32145;50.390;30.778;2024-01-25T13:34:57;10.68;;;6.95;;
46447;SDS011;32145;50.390;30.778;2024-01-25T13:37:52;15.27;;;7.38;;
46447;SDS011;32145;50.390;30.778;2024-01-25T13:40:46;9.90;;;5.55;;
46447;SDS011;32145;50.390;30.778;2024-01-25T13:43:43;11.07;;;6.80;;
46447;SDS011;32145;50.390;30.778;2024-01-25T13:46:40;11.43;;;6.68;;
46447;SDS011;32145;50.390;30.778;2024-01-25T13:49:35;11.73;;;5.82;;
46447;SDS011;32145;50.390;30.778;2024-01-25T13:52:29;13.85;;;6.53;;
46447;SDS011;32145;50.390;30.778;2024-01-25T13:55:23;11.57;;;6.47;;
46447;SDS011;32145;50.390;30.778;2024-01-25T13:58:18;10.68;;;6.10;;
46447;SDS011;32145;50.390;30.778;2024-01-25T14:01:12;11.27;;;6.40;;
46447;SDS011;32145;50.390;30.778;2024-01-25T14:04:08;10.98;;;5.82;;
46447;SDS011;32145;50.390;30.778;2024-01-25T14:07:02;10.02;;;5.22;;
46447;SDS011;32145;50.390;30.778;2024-01-25T14:09:56;11.45;;;6.70;;
46447;SDS011;32145;50.390;30.778;2024-01-25T14:12:53;18.08;;;9.93;;
46447;SDS011;32145;50.390;30.778;2024-01-25T14:15:49;12.27;;;7.90;;
46447;SDS011;32145;50.390;30.778;2024-01-25T14:18:45;16.52;;;8.80;;
46447;SDS011;32145;50.390;30.778;2024-01-25T14:21:43;19.98;;;10.82;;
46447;SDS011;32145;50.390;30.778;2024-01-25T14:24:40;19.60;;;10.88;;
46447;SDS011;32145;50.390;30.778;2024-01-25T14:27:36;13.77;;;8.75;;
46447;SDS011;32145;50.390;30.778;2024-01-25T14:30:32;16.95;;;10.38;;
46447;SDS011;32145;50.390;30.778;2024-01-25T14:33:29;16.83;;;9.38;;
46447;SDS011;32145;50.390;30.778;2024-01-25T14:36:25;15.38;;;8.63;;
46447;SDS011;32145;50.390;30.778;2024-01-25T14:39:23;13.93;;;8.85;;
46447;SDS011;32145;50.390;30.778;2024-01-25T14:42:19;11.85;;;7.13;;
46447;SDS011;32145;50.390;30.778;2024-01-25T14:45:13;14.20;;;8.05;;
46447;SDS011;32145;50.390;30.778;2024-01-25T14:48:08;12.98;;;7.55;;
46447;SDS011;32145;50.390;30.778;2024-01-25T14:51:02;12.75;;;7.32;;
46447;SDS011;32145;50.390;30.778;2024-01-25T14:53:56;13.10;;;7.45;;
46447;SDS011;32145;50.390;30.778;2024-01-25T14:56:54;10.68;;;6.32;;
46447;SDS011;32145;50.390;30.778;2024-01-25T14:59:50;13.02;;;6.90;;
46447;SDS011;32145;50.390;30.778;2024-01-25T15:02:47;11.57;;;7.40;;
46447;SDS011;32145;50.390;30.778;2024-01-25T15:05:43;13.00;;;7.70;;
46447;SDS011;32145;50.390;30.778;2024-01-25T15:08:39;14.00;;;7.95;;
46447;SDS011;32145;50.390;30.778;2024-01-25T15:11:36;15.35;;;8.73;;
46447;SDS011;32145;50.390;30.778;2024-01-25T15:14:33;15.18;;;7.82;;
46447;SDS011;32145;50.390;30.778;2024-01-25T15:17:30;13.40;;;6.70;;
46447;SDS011;32145;50.390;30.778;2024-01-25T15:20:25;15.27;;;7.13;;
46447;SDS011;32145;50.390;30.778;2024-01-25T15:23:20;13.07;;;6.43;;
46447;SDS011;32145;50.390;30.778;2024-01-25T15:26:16;12.35;;;6.85;;
46447;SDS011;32145;50.390;30.778;2024-01-25T15:29:13;12.57;;;6.50;;
46447;SDS011;32145;50.390;30.778;2024-01-25T15:32:10;12.77;;;6.45;;
46447;SDS011;32145;50.390;30.778;2024-01-25T15:35:07;13.73;;;6.60;;
46447;SDS011;32145;50.390;30.778;2024-01-25T15:38:04;11.65;;;6.60;;
46447;SDS011;32145;50.390;30.778;2024-01-25T15:41:01;12.23;;;6.07;;
46447;SDS011;32145;50.390;30.778;2024-01-25T15:44:01;15.45;;;7.40;;
46447;SDS011;32145;50.390;30.778;2024-01-25T15:46:55;33.45;;;17.70;;
46447;SDS011;32145;50.390;30.778;2024-01-25T15:49:51;14.20;;;8.20;;
46447;SDS011;32145;50.390;30.778;2024-01-25T15:52:45;13.27;;;8.43;;
46447;SDS011;32145;50.390;30.778;2024-01-25T15:55:39;13.82;;;8.93;;
46447;SDS011;32145;50.390;30.778;2024-01-25T15:58:34;16.73;;;10.07;;
46447;SDS011;32145;50.390;30.778;2024-01-25T16:01:28;16.60;;;10.32;;
46447;SDS011;32145;50.390;30.778;2024-01-25T16:04:25;16.58;;;10.30;;
46447;SDS011;32145;50.390;30.778;2024-01-25T16:07:22;18.02;;;10.43;;
46447;SDS011;32145;50.390;30.778;2024-01-25T16:10:19;18.63;;;11.43;;
46447;SDS011;32145;50.390;30.778;2024-01-25T16:13:15;18.85;;;11.25;;
46447;SDS011;32145;50.390;30.778;2024-01-25T16:16:11;18.20;;;11.75;;
46447;SDS011;32145;50.390;30.778;2024-01-25T16:19:08;17.90;;;12.23;;
46447;SDS011;32145;50.390;30.778;2024-01-25T16:22:04;24.83;;;12.18;;
46447;SDS011;32145;50.390;30.778;2024-01-25T16:25:02;19.55;;;12.30;;
46447;SDS011;32145;50.390;30.778;2024-01-25T16:27:57;23.38;;;14.25;;
46447;SDS011;32145;50.390;30.778;2024-01-25T16:30:51;27.70;;;15.20;;
46447;SDS011;32145;50.390;30.778;2024-01-25T16:33:45;24.85;;;14.27;;
46447;SDS011;32145;50.390;30.778;2024-01-25T16:36:40;23.42;;;14.45;;
46447;SDS011;32145;50.390;30.778;2024-01-25T16:39:36;24.10;;;14.60;;
46447;SDS011;32145;50.390;30.778;2024-01-25T16:42:34;25.77;;;14.93;;
46447;SDS011;32145;50.390;30.778;2024-01-25T16:45:30;23.95;;;14.18;;
46447;SDS011;32145;50.390;30.778;2024-01-25T16:48:27;23.15;;;15.35;;
46447;SDS011;32145;50.390;30.778;2024-01-25T16:51:23;24.63;;;14.82;;
46447;SDS011;32145;50.390;30.778;2024-01-25T16:54:19;23.70;;;14.80;;
46447;SDS011;32145;50.390;30.778;2024-01-25T16:57:16;26.27;;;15.40;;
46447;SDS011;32145;50.390;30.778;2024-01-25T17:00:15;29.02;;;16.75;;